HJC weather

SEIDO Heliport
Cuauhtémoc, Distrito Federal, Mexico

Public forecast

Using degrees Celsius for public forecast. Weather courtesy of forecast.io.

METAR (pilot weather report)

Closest report is Licenciado Benito Juarez International Airport, 4.1 nm (7.6 km) E. Retrieved 2019/08/18 20:39 UTC (0 seconds ago):

MMMX 182039Z 10004KT 6SM SCT020 27/10 A3024 NOSIG RMK 8/200 HZY TCU NE AND SW

TAF (pilot weather forecast)

Closest forecast is Licenciado Benito Juarez International Airport, 4.1 nm (7.6 km) E. Retrieved 2019/08/18 18:31 UTC (2 hours ago):

TAF MMMX 181626Z 1818/1924 04010KT 4SM HZ SCT020 TX26/1821Z TN15/1912Z TEMPO 1823/1903 5SM TSRA BKN020CB FM190300 04005KT 5SM HZ SCT020 BKN080 BKN250 FM190900 06005KT 5SM HZ SCT090 BKN250 FM191800 06010KT P6SM SCT020 BKN250 TEMPO 1920/1924 SCT020CB VC TS